sensor_id;sensor_type;location;lat;lon;timestamp;P1;P4;P2;P0;N10;N4;N25;N1;N05;TS
77468;SPS30;68840;50.272;12.818;2024-01-25T00:00:05;8.8;7.9;6.2;4.0;;;;;;
77468;SPS30;68840;50.272;12.818;2024-01-25T00:02:05;8.1;7.4;5.9;3.8;;;;;;
77468;SPS30;68840;50.272;12.818;2024-01-25T00:04:05;7.5;6.8;5.4;3.6;;;;;;
77468;SPS30;68840;50.272;12.818;2024-01-25T00:06:05;8.6;7.8;6.1;3.9;;;;;;
77468;SPS30;68840;50.272;12.818;2024-01-25T00:08:05;6.9;6.3;5.1;3.4;;;;;;
77468;SPS30;68840;50.272;12.818;2024-01-25T00:10:05;7.1;6.4;5.2;3.6;;;;;;
77468;SPS30;68840;50.272;12.818;2024-01-25T00:12:05;7.2;6.6;5.3;3.7;;;;;;
77468;SPS30;68840;50.272;12.818;2024-01-25T00:14:05;5.8;5.3;4.3;3.0;;;;;;
77468;SPS30;68840;50.272;12.818;2024-01-25T00:16:05;8.4;7.7;6.3;4.3;;;;;;
77468;SPS30;68840;50.272;12.818;2024-01-25T00:18:05;6.8;6.3;5.1;3.5;;;;;;
77468;SPS30;68840;50.272;12.818;2024-01-25T00:20:05;7.5;6.9;5.6;3.9;;;;;;
77468;SPS30;68840;50.272;12.818;2024-01-25T00:22:05;8.4;7.7;6.2;4.2;;;;;;
77468;SPS30;68840;50.272;12.818;2024-01-25T00:24:05;7.3;6.6;5.4;3.7;;;;;;
77468;SPS30;68840;50.272;12.818;2024-01-25T00:26:05;8.3;7.5;6.0;4.0;;;;;;
77468;SPS30;68840;50.272;12.818;2024-01-25T00:28:05;6.6;6.1;5.0;3.6;;;;;;
77468;SPS30;68840;50.272;12.818;2024-01-25T00:30:05;7.0;6.4;5.1;3.4;;;;;;
77468;SPS30;68840;50.272;12.818;2024-01-25T00:32:05;6.8;6.2;5.1;3.5;;;;;;
77468;SPS30;68840;50.272;12.818;2024-01-25T00:34:05;6.7;6.2;5.1;3.6;;;;;;
77468;SPS30;68840;50.272;12.818;2024-01-25T00:36:05;7.0;6.5;5.4;3.8;;;;;;
77468;SPS30;68840;50.272;12.818;2024-01-25T00:38:06;6.4;5.9;4.9;3.5;;;;;;
77468;SPS30;68840;50.272;12.818;2024-01-25T00:40:06;8.4;7.7;6.2;4.2;;;;;;
77468;SPS30;68840;50.272;12.818;2024-01-25T00:42:05;7.1;6.5;5.2;3.4;;;;;;
77468;SPS30;68840;50.272;12.818;2024-01-25T00:44:05;8.7;7.8;6.2;4.0;;;;;;
77468;SPS30;68840;50.272;12.818;2024-01-25T00:46:05;7.5;6.7;5.3;3.3;;;;;;
77468;SPS30;68840;50.272;12.818;2024-01-25T00:48:05;7.1;6.5;5.1;3.3;;;;;;
77468;SPS30;68840;50.272;12.818;2024-01-25T00:50:06;6.3;5.8;4.6;3.1;;;;;;
77468;SPS30;68840;50.272;12.818;2024-01-25T00:52:05;7.1;6.5;5.3;3.6;;;;;;
77468;SPS30;68840;50.272;12.818;2024-01-25T00:54:05;6.6;6.0;4.9;3.3;;;;;;
77468;SPS30;68840;50.272;12.818;2024-01-25T00:56:05;6.7;6.2;5.0;3.5;;;;;;
77468;SPS30;68840;50.272;12.818;2024-01-25T00:58:05;6.9;6.3;5.1;3.4;;;;;;
77468;SPS30;68840;50.272;12.818;2024-01-25T01:00:05;5.9;5.4;4.5;3.1;;;;;;
77468;SPS30;68840;50.272;12.818;2024-01-25T01:02:05;6.4;5.9;4.9;3.5;;;;;;
77468;SPS30;68840;50.272;12.818;2024-01-25T01:04:05;5.8;5.3;4.3;3.0;;;;;;
77468;SPS30;68840;50.272;12.818;2024-01-25T01:06:05;6.6;6.0;4.8;3.2;;;;;;
77468;SPS30;68840;50.272;12.818;2024-01-25T01:08:05;7.5;6.8;5.5;3.7;;;;;;
77468;SPS30;68840;50.272;12.818;2024-01-25T01:10:05;6.6;6.0;5.0;3.5;;;;;;
77468;SPS30;68840;50.272;12.818;2024-01-25T01:12:06;6.3;5.8;4.8;3.4;;;;;;
77468;SPS30;68840;50.272;12.818;2024-01-25T01:14:05;7.0;6.4;5.2;3.5;;;;;;
77468;SPS30;68840;50.272;12.818;2024-01-25T01:16:05;6.9;6.3;5.1;3.5;;;;;;
77468;SPS30;68840;50.272;12.818;2024-01-25T01:18:05;6.1;5.6;4.6;3.1;;;;;;
77468;SPS30;68840;50.272;12.818;2024-01-25T01:20:06;7.0;6.4;5.3;3.7;;;;;;
77468;SPS30;68840;50.272;12.818;2024-01-25T01:22:05;8.5;7.7;6.3;4.3;;;;;;
77468;SPS30;68840;50.272;12.818;2024-01-25T01:24:05;6.8;6.2;5.0;3.4;;;;;;
77468;SPS30;68840;50.272;12.818;2024-01-25T01:26:05;5.8;5.3;4.3;2.9;;;;;;
77468;SPS30;68840;50.272;12.818;2024-01-25T01:28:05;7.0;6.4;5.2;3.6;;;;;;
77468;SPS30;68840;50.272;12.818;2024-01-25T01:30:05;7.2;6.6;5.3;3.7;;;;;;
77468;SPS30;68840;50.272;12.818;2024-01-25T01:32:05;8.4;7.6;5.9;3.7;;;;;;
77468;SPS30;68840;50.272;12.818;2024-01-25T01:34:05;6.8;6.2;5.0;3.3;;;;;;
77468;SPS30;68840;50.272;12.818;2024-01-25T01:36:05;7.9;7.1;5.6;3.6;;;;;;
77468;SPS30;68840;50.272;12.818;2024-01-25T01:38:05;8.2;7.4;5.9;3.8;;;;;;
77468;SPS30;68840;50.272;12.818;2024-01-25T01:40:05;7.1;6.4;5.2;3.5;;;;;;
77468;SPS30;68840;50.272;12.818;2024-01-25T01:42:05;6.1;5.5;4.5;3.0;;;;;;
77468;SPS30;68840;50.272;12.818;2024-01-25T01:44:05;7.6;6.9;5.5;3.7;;;;;;
77468;SPS30;68840;50.272;12.818;2024-01-25T01:46:08;7.6;6.9;5.5;3.6;;;;;;
77468;SPS30;68840;50.272;12.818;2024-01-25T01:48:05;7.7;7.0;5.7;3.9;;;;;;
77468;SPS30;68840;50.272;12.818;2024-01-25T01:50:05;6.8;6.2;5.0;3.4;;;;;;
77468;SPS30;68840;50.272;12.818;2024-01-25T01:52:05;7.4;6.8;5.6;3.8;;;;;;
77468;SPS30;68840;50.272;12.818;2024-01-25T01:54:06;7.2;6.5;5.3;3.6;;;;;;
77468;SPS30;68840;50.272;12.818;2024-01-25T01:56:05;7.5;6.8;5.6;3.8;;;;;;
77468;SPS30;68840;50.272;12.818;2024-01-25T01:58:05;7.0;6.4;5.2;3.6;;;;;;
77468;SPS30;68840;50.272;12.818;2024-01-25T02:00:06;5.8;5.3;4.3;2.9;;;;;;
77468;SPS30;68840;50.272;12.818;2024-01-25T02:02:05;7.5;6.8;5.5;3.8;;;;;;
77468;SPS30;68840;50.272;12.818;2024-01-25T02:04:05;7.9;7.2;5.8;3.9;;;;;;
77468;SPS30;68840;50.272;12.818;2024-01-25T02:06:05;6.7;6.1;5.0;3.4;;;;;;
77468;SPS30;68840;50.272;12.818;2024-01-25T02:08:05;6.6;6.1;5.0;3.5;;;;;;
77468;SPS30;68840;50.272;12.818;2024-01-25T02:10:06;7.4;6.7;5.5;3.8;;;;;;
77468;SPS30;68840;50.272;12.818;2024-01-25T02:12:05;8.5;7.7;6.1;4.1;;;;;;
77468;SPS30;68840;50.272;12.818;2024-01-25T02:14:05;7.7;7.0;5.5;3.6;;;;;;
77468;SPS30;68840;50.272;12.818;2024-01-25T02:16:05;7.5;6.8;5.4;3.5;;;;;;
77468;SPS30;68840;50.272;12.818;2024-01-25T02:18:05;7.4;6.7;5.3;3.4;;;;;;
77468;SPS30;68840;50.272;12.818;2024-01-25T02:20:06;7.8;7.0;5.5;3.5;;;;;;
77468;SPS30;68840;50.272;12.818;2024-01-25T02:22:05;8.1;7.3;5.8;3.7;;;;;;
77468;SPS30;68840;50.272;12.818;2024-01-25T02:24:05;7.2;6.5;5.1;3.3;;;;;;
77468;SPS30;68840;50.272;12.818;2024-01-25T02:26:05;7.8;7.1;5.6;3.6;;;;;;
77468;SPS30;68840;50.272;12.818;2024-01-25T02:28:05;7.9;7.2;5.8;3.8;;;;;;
77468;SPS30;68840;50.272;12.818;2024-01-25T02:30:06;7.3;6.6;5.2;3.4;;;;;;
77468;SPS30;68840;50.272;12.818;2024-01-25T02:32:05;7.9;7.1;5.6;3.5;;;;;;
77468;SPS30;68840;50.272;12.818;2024-01-25T02:34:05;7.2;6.5;5.2;3.3;;;;;;
77468;SPS30;68840;50.272;12.818;2024-01-25T02:36:05;8.2;7.5;6.0;3.9;;;;;;
77468;SPS30;68840;50.272;12.818;2024-01-25T02:38:05;9.2;8.4;6.9;4.7;;;;;;
77468;SPS30;68840;50.272;12.818;2024-01-25T02:40:05;7.9;7.1;5.7;3.8;;;;;;
77468;SPS30;68840;50.272;12.818;2024-01-25T02:42:05;8.7;8.0;6.5;4.5;;;;;;
77468;SPS30;68840;50.272;12.818;2024-01-25T02:44:05;7.0;6.4;5.2;3.6;;;;;;
77468;SPS30;68840;50.272;12.818;2024-01-25T02:46:05;8.0;7.3;5.9;4.0;;;;;;
77468;SPS30;68840;50.272;12.818;2024-01-25T02:48:05;8.2;7.4;5.9;3.8;;;;;;
77468;SPS30;68840;50.272;12.818;2024-01-25T02:50:05;8.1;7.3;5.8;3.8;;;;;;
77468;SPS30;68840;50.272;12.818;2024-01-25T02:52:05;7.7;6.9;5.3;3.2;;;;;;
77468;SPS30;68840;50.272;12.818;2024-01-25T02:54:05;8.1;7.3;5.7;3.6;;;;;;
77468;SPS30;68840;50.272;12.818;2024-01-25T02:56:05;8.4;7.6;5.9;3.6;;;;;;
77468;SPS30;68840;50.272;12.818;2024-01-25T02:58:05;7.5;6.7;5.2;3.2;;;;;;
77468;SPS30;68840;50.272;12.818;2024-01-25T03:00:06;8.9;8.1;6.4;4.1;;;;;;
77468;SPS30;68840;50.272;12.818;2024-01-25T03:02:05;8.7;7.9;6.2;3.9;;;;;;
77468;SPS30;68840;50.272;12.818;2024-01-25T03:04:05;7.6;6.8;5.3;3.2;;;;;;
77468;SPS30;68840;50.272;12.818;2024-01-25T03:06:05;7.4;6.6;5.2;3.2;;;;;;
77468;SPS30;68840;50.272;12.818;2024-01-25T03:08:05;8.5;7.7;6.1;3.9;;;;;;
77468;SPS30;68840;50.272;12.818;2024-01-25T03:10:05;8.5;7.7;6.1;3.9;;;;;;
77468;SPS30;68840;50.272;12.818;2024-01-25T03:12:05;6.5;5.9;4.7;3.1;;;;;;
77468;SPS30;68840;50.272;12.818;2024-01-25T03:14:05;8.6;7.8;6.2;4.1;;;;;;
77468;SPS30;68840;50.272;12.818;2024-01-25T03:16:05;8.1;7.3;5.9;3.9;;;;;;
77468;SPS30;68840;50.272;12.818;2024-01-25T03:18:05;7.1;6.4;5.1;3.3;;;;;;
77468;SPS30;68840;50.272;12.818;2024-01-25T03:20:06;6.5;5.9;4.8;3.3;;;;;;
77468;SPS30;68840;50.272;12.818;2024-01-25T03:22:05;7.5;6.8;5.5;3.6;;;;;;
77468;SPS30;68840;50.272;12.818;2024-01-25T03:24:05;8.6;7.8;6.2;4.1;;;;;;
77468;SPS30;68840;50.272;12.818;2024-01-25T03:26:05;8.6;7.7;6.0;3.7;;;;;;
77468;SPS30;68840;50.272;12.818;2024-01-25T03:28:05;8.5;7.7;6.0;3.9;;;;;;
77468;SPS30;68840;50.272;12.818;2024-01-25T03:30:05;7.7;6.9;5.5;3.5;;;;;;
77468;SPS30;68840;50.272;12.818;2024-01-25T03:32:05;8.7;7.8;6.0;3.7;;;;;;
77468;SPS30;68840;50.272;12.818;2024-01-25T03:34:05;9.1;8.1;6.3;3.8;;;;;;
77468;SPS30;68840;50.272;12.818;2024-01-25T03:36:05;8.0;7.3;5.8;3.8;;;;;;
77468;SPS30;68840;50.272;12.818;2024-01-25T03:38:05;8.8;8.0;6.3;4.1;;;;;;
77468;SPS30;68840;50.272;12.818;2024-01-25T03:40:05;8.0;7.2;5.7;3.7;;;;;;
77468;SPS30;68840;50.272;12.818;2024-01-25T03:42:05;9.6;8.7;7.0;4.6;;;;;;
77468;SPS30;68840;50.272;12.818;2024-01-25T03:44:05;7.9;7.1;5.6;3.6;;;;;;
77468;SPS30;68840;50.272;12.818;2024-01-25T03:46:05;8.3;7.6;6.1;4.0;;;;;;
77468;SPS30;68840;50.272;12.818;2024-01-25T03:48:05;7.8;7.1;5.6;3.7;;;;;;
77468;SPS30;68840;50.272;12.818;2024-01-25T03:50:05;7.9;7.2;5.7;3.7;;;;;;
77468;SPS30;68840;50.272;12.818;2024-01-25T03:52:05;9.1;8.2;6.5;4.2;;;;;;
77468;SPS30;68840;50.272;12.818;2024-01-25T03:54:05;7.7;7.0;5.5;3.6;;;;;;
77468;SPS30;68840;50.272;12.818;2024-01-25T03:56:10;9.3;8.3;6.5;4.1;;;;;;
77468;SPS30;68840;50.272;12.818;2024-01-25T03:58:05;8.3;7.4;5.8;3.7;;;;;;
77468;SPS30;68840;50.272;12.818;2024-01-25T04:00:05;6.9;6.2;4.9;3.2;;;;;;
77468;SPS30;68840;50.272;12.818;2024-01-25T04:02:05;7.7;6.9;5.5;3.6;;;;;;
77468;SPS30;68840;50.272;12.818;2024-01-25T04:04:05;8.1;7.3;5.7;3.6;;;;;;
77468;SPS30;68840;50.272;12.818;2024-01-25T04:06:05;10.0;9.1;7.1;4.5;;;;;;
77468;SPS30;68840;50.272;12.818;2024-01-25T04:08:05;8.1;7.3;5.9;3.9;;;;;;
77468;SPS30;68840;50.272;12.818;2024-01-25T04:10:05;8.6;7.8;6.1;3.9;;;;;;
77468;SPS30;68840;50.272;12.818;2024-01-25T04:12:05;8.5;7.6;6.0;3.8;;;;;;
77468;SPS30;68840;50.272;12.818;2024-01-25T04:14:05;9.4;8.5;6.6;4.2;;;;;;
77468;SPS30;68840;50.272;12.818;2024-01-25T04:16:05;8.1;7.3;5.8;3.8;;;;;;
77468;SPS30;68840;50.272;12.818;2024-01-25T04:18:05;8.2;7.4;5.9;3.9;;;;;;
77468;SPS30;68840;50.272;12.818;2024-01-25T04:20:06;8.5;7.6;5.9;3.6;;;;;;
77468;SPS30;68840;50.272;12.818;2024-01-25T04:22:05;8.2;7.4;5.8;3.6;;;;;;
77468;SPS30;68840;50.272;12.818;2024-01-25T04:24:05;9.5;8.6;6.8;4.4;;;;;;
77468;SPS30;68840;50.272;12.818;2024-01-25T04:26:05;7.5;6.7;5.2;3.2;;;;;;
77468;SPS30;68840;50.272;12.818;2024-01-25T04:28:05;9.8;8.8;6.8;4.2;;;;;;
77468;SPS30;68840;50.272;12.818;2024-01-25T04:30:06;7.9;7.1;5.6;3.5;;;;;;
77468;SPS30;68840;50.272;12.818;2024-01-25T04:32:05;9.3;8.4;6.7;4.3;;;;;;
77468;SPS30;68840;50.272;12.818;2024-01-25T04:34:05;8.5;7.7;6.1;4.0;;;;;;
77468;SPS30;68840;50.272;12.818;2024-01-25T04:36:05;8.2;7.4;6.0;4.0;;;;;;
77468;SPS30;68840;50.272;12.818;2024-01-25T04:38:05;9.5;8.6;6.8;4.4;;;;;;
77468;SPS30;68840;50.272;12.818;2024-01-25T04:40:05;8.2;7.3;5.8;3.6;;;;;;
77468;SPS30;68840;50.272;12.818;2024-01-25T04:42:05;8.1;7.3;5.8;3.8;;;;;;
77468;SPS30;68840;50.272;12.818;2024-01-25T04:44:05;8.9;8.1;6.4;4.1;;;;;;
77468;SPS30;68840;50.272;12.818;2024-01-25T04:46:05;9.1;8.2;6.4;4.0;;;;;;
77468;SPS30;68840;50.272;12.818;2024-01-25T04:48:05;8.0;7.2;5.6;3.6;;;;;;
77468;SPS30;68840;50.272;12.818;2024-01-25T04:50:05;9.3;8.4;6.5;4.0;;;;;;
77468;SPS30;68840;50.272;12.818;2024-01-25T04:52:05;10.2;9.2;7.1;4.3;;;;;;
77468;SPS30;68840;50.272;12.818;2024-01-25T04:54:05;10.4;9.3;7.1;4.2;;;;;;
77468;SPS30;68840;50.272;12.818;2024-01-25T04:56:05;8.8;7.8;6.0;3.6;;;;;;
77468;SPS30;68840;50.272;12.818;2024-01-25T04:58:05;9.8;8.8;6.8;4.2;;;;;;
77468;SPS30;68840;50.272;12.818;2024-01-25T05:00:06;10.3;9.2;7.1;4.2;;;;;;
77468;SPS30;68840;50.272;12.818;2024-01-25T05:02:05;8.2;7.4;5.7;3.5;;;;;;
77468;SPS30;68840;50.272;12.818;2024-01-25T05:04:05;8.8;7.9;6.1;3.7;;;;;;
77468;SPS30;68840;50.272;12.818;2024-01-25T05:06:05;8.7;7.9;6.3;4.1;;;;;;
77468;SPS30;68840;50.272;12.818;2024-01-25T05:08:05;8.7;7.8;6.1;3.7;;;;;;
77468;SPS30;68840;50.272;12.818;2024-01-25T05:10:05;8.5;7.6;5.9;3.7;;;;;;
77468;SPS30;68840;50.272;12.818;2024-01-25T05:12:05;10.0;9.0;7.0;4.4;;;;;;
77468;SPS30;68840;50.272;12.818;2024-01-25T05:14:05;8.9;8.1;6.4;4.1;;;;;;
77468;SPS30;68840;50.272;12.818;2024-01-25T05:16:05;7.3;6.6;5.3;3.4;;;;;;
77468;SPS30;68840;50.272;12.818;2024-01-25T05:18:05;7.9;7.2;5.9;4.1;;;;;;
77468;SPS30;68840;50.272;12.818;2024-01-25T05:20:05;7.2;6.5;5.3;3.5;;;;;;
77468;SPS30;68840;50.272;12.818;2024-01-25T05:22:05;7.4;6.7;5.4;3.5;;;;;;
77468;SPS30;68840;50.272;12.818;2024-01-25T05:24:05;7.8;7.1;5.8;3.9;;;;;;
77468;SPS30;68840;50.272;12.818;2024-01-25T05:26:05;8.4;7.7;6.2;4.3;;;;;;
77468;SPS30;68840;50.272;12.818;2024-01-25T05:28:05;8.9;8.1;6.5;4.3;;;;;;
77468;SPS30;68840;50.272;12.818;2024-01-25T05:30:05;8.1;7.4;6.0;4.0;;;;;;
77468;SPS30;68840;50.272;12.818;2024-01-25T05:32:05;9.1;8.2;6.6;4.3;;;;;;
77468;SPS30;68840;50.272;12.818;2024-01-25T05:34:05;7.9;7.2;5.7;3.8;;;;;;
77468;SPS30;68840;50.272;12.818;2024-01-25T05:36:05;6.8;6.3;5.1;3.5;;;;;;
77468;SPS30;68840;50.272;12.818;2024-01-25T05:38:05;8.3;7.6;6.1;4.1;;;;;;
77468;SPS30;68840;50.272;12.818;2024-01-25T05:40:05;9.4;8.5;6.8;4.5;;;;;;
77468;SPS30;68840;50.272;12.818;2024-01-25T05:42:05;6.9;6.3;5.1;3.4;;;;;;
77468;SPS30;68840;50.272;12.818;2024-01-25T05:44:05;8.4;7.6;6.1;4.0;;;;;;
77468;SPS30;68840;50.272;12.818;2024-01-25T05:46:05;7.0;6.3;5.1;3.4;;;;;;
77468;SPS30;68840;50.272;12.818;2024-01-25T05:48:05;7.2;6.6;5.4;3.7;;;;;;
77468;SPS30;68840;50.272;12.818;2024-01-25T05:50:05;8.5;7.8;6.3;4.4;;;;;;
77468;SPS30;68840;50.272;12.818;2024-01-25T05:52:05;7.7;7.0;5.8;4.0;;;;;;
77468;SPS30;68840;50.272;12.818;2024-01-25T05:54:05;8.1;7.4;6.0;4.1;;;;;;
77468;SPS30;68840;50.272;12.818;2024-01-25T05:56:05;9.5;8.6;6.9;4.5;;;;;;
77468;SPS30;68840;50.272;12.818;2024-01-25T05:58:05;5.5;5.0;4.0;2.6;;;;;;
77468;SPS30;68840;50.272;12.818;2024-01-25T06:00:05;6.7;6.0;4.8;3.1;;;;;;
77468;SPS30;68840;50.272;12.818;2024-01-25T06:02:05;7.2;6.6;5.5;3.8;;;;;;
77468;SPS30;68840;50.272;12.818;2024-01-25T06:04:05;6.0;5.5;4.5;3.0;;;;;;
77468;SPS30;68840;50.272;12.818;2024-01-25T06:06:05;7.8;7.1;5.6;3.6;;;;;;
77468;SPS30;68840;50.272;12.818;2024-01-25T06:08:05;7.0;6.4;5.1;3.3;;;;;;
77468;SPS30;68840;50.272;12.818;2024-01-25T06:10:05;8.4;7.7;6.2;4.2;;;;;;
77468;SPS30;68840;50.272;12.818;2024-01-25T06:12:05;5.5;5.1;4.1;2.8;;;;;;
77468;SPS30;68840;50.272;12.818;2024-01-25T06:14:05;6.8;6.2;5.1;3.5;;;;;;
77468;SPS30;68840;50.272;12.818;2024-01-25T06:16:05;6.2;5.6;4.6;3.1;;;;;;
77468;SPS30;68840;50.272;12.818;2024-01-25T06:18:05;4.9;4.5;3.7;2.6;;;;;;
77468;SPS30;68840;50.272;12.818;2024-01-25T06:20:05;6.9;6.3;5.2;3.6;;;;;;
77468;SPS30;68840;50.272;12.818;2024-01-25T06:22:05;6.4;5.8;4.8;3.3;;;;;;
77468;SPS30;68840;50.272;12.818;2024-01-25T06:24:05;6.6;6.1;5.0;3.5;;;;;;
77468;SPS30;68840;50.272;12.818;2024-01-25T06:26:05;5.3;4.9;4.1;3.0;;;;;;
77468;SPS30;68840;50.272;12.818;2024-01-25T06:28:05;6.5;6.0;5.0;3.5;;;;;;
77468;SPS30;68840;50.272;12.818;2024-01-25T06:30:05;4.7;4.3;3.6;2.5;;;;;;
77468;SPS30;68840;50.272;12.818;2024-01-25T06:32:05;6.0;5.5;4.7;3.4;;;;;;
77468;SPS30;68840;50.272;12.818;2024-01-25T06:34:05;6.5;5.9;4.9;3.4;;;;;;
77468;SPS30;68840;50.272;12.818;2024-01-25T06:36:06;6.4;5.9;4.8;3.3;;;;;;
77468;SPS30;68840;50.272;12.818;2024-01-25T06:38:05;6.1;5.6;4.6;3.2;;;;;;
77468;SPS30;68840;50.272;12.818;2024-01-25T06:40:05;5.5;5.1;4.2;3.0;;;;;;
77468;SPS30;68840;50.272;12.818;2024-01-25T06:42:05;6.4;5.9;4.7;3.2;;;;;;
77468;SPS30;68840;50.272;12.818;2024-01-25T06:44:05;5.2;4.7;3.9;2.7;;;;;;
77468;SPS30;68840;50.272;12.818;2024-01-25T06:46:05;5.9;5.4;4.3;2.9;;;;;;
77468;SPS30;68840;50.272;12.818;2024-01-25T06:48:05;7.2;6.6;5.3;3.5;;;;;;
77468;SPS30;68840;50.272;12.818;2024-01-25T06:50:06;7.2;6.5;5.2;3.5;;;;;;
77468;SPS30;68840;50.272;12.818;2024-01-25T06:52:05;7.8;7.0;5.5;3.5;;;;;;
77468;SPS30;68840;50.272;12.818;2024-01-25T06:54:05;6.1;5.5;4.3;2.6;;;;;;
77468;SPS30;68840;50.272;12.818;2024-01-25T06:56:05;5.8;5.3;4.1;2.6;;;;;;
77468;SPS30;68840;50.272;12.818;2024-01-25T06:58:05;5.8;5.3;4.2;2.7;;;;;;
77468;SPS30;68840;50.272;12.818;2024-01-25T07:00:06;5.0;4.5;3.5;2.2;;;;;;
77468;SPS30;68840;50.272;12.818;2024-01-25T07:02:05;6.3;5.6;4.4;2.7;;;;;;
77468;SPS30;68840;50.272;12.818;2024-01-25T07:04:05;6.4;5.7;4.4;2.7;;;;;;
77468;SPS30;68840;50.272;12.818;2024-01-25T07:06:05;6.2;5.6;4.4;2.8;;;;;;
77468;SPS30;68840;50.272;12.818;2024-01-25T07:08:05;5.6;5.1;4.0;2.5;;;;;;
77468;SPS30;68840;50.272;12.818;2024-01-25T07:10:05;5.6;5.1;3.9;2.4;;;;;;
77468;SPS30;68840;50.272;12.818;2024-01-25T07:12:05;6.4;5.8;4.5;2.7;;;;;;
77468;SPS30;68840;50.272;12.818;2024-01-25T07:14:05;5.4;4.9;3.8;2.4;;;;;;
77468;SPS30;68840;50.272;12.818;2024-01-25T07:16:05;6.4;5.7;4.5;2.8;;;;;;
77468;SPS30;68840;50.272;12.818;2024-01-25T07:18:05;5.6;5.1;4.0;2.5;;;;;;
77468;SPS30;68840;50.272;12.818;2024-01-25T07:20:06;5.5;5.0;3.9;2.4;;;;;;
77468;SPS30;68840;50.272;12.818;2024-01-25T07:22:05;5.1;4.5;3.5;2.1;;;;;;
77468;SPS30;68840;50.272;12.818;2024-01-25T07:24:05;6.0;5.4;4.2;2.5;;;;;;
77468;SPS30;68840;50.272;12.818;2024-01-25T07:26:05;4.7;4.2;3.3;2.1;;;;;;
77468;SPS30;68840;50.272;12.818;2024-01-25T07:28:05;6.3;5.7;4.4;2.8;;;;;;
77468;SPS30;68840;50.272;12.818;2024-01-25T07:30:05;3.9;3.5;2.8;1.8;;;;;;
77468;SPS30;68840;50.272;12.818;2024-01-25T07:32:05;6.0;5.4;4.4;2.9;;;;;;
77468;SPS30;68840;50.272;12.818;2024-01-25T07:34:05;3.9;3.5;2.8;1.8;;;;;;
77468;SPS30;68840;50.272;12.818;2024-01-25T07:36:05;4.6;4.1;3.3;2.3;;;;;;
77468;SPS30;68840;50.272;12.818;2024-01-25T07:38:05;5.5;5.0;4.0;2.7;;;;;;
77468;SPS30;68840;50.272;12.818;2024-01-25T07:40:05;3.9;3.5;2.8;1.9;;;;;;
77468;SPS30;68840;50.272;12.818;2024-01-25T07:42:05;3.5;3.2;2.5;1.7;;;;;;
77468;SPS30;68840;50.272;12.818;2024-01-25T07:44:05;4.1;3.7;3.0;2.0;;;;;;
77468;SPS30;68840;50.272;12.818;2024-01-25T07:46:05;4.6;4.1;3.3;2.2;;;;;;
77468;SPS30;68840;50.272;12.818;2024-01-25T07:48:05;3.8;3.5;2.8;1.8;;;;;;
77468;SPS30;68840;50.272;12.818;2024-01-25T07:50:05;4.2;3.8;3.1;2.0;;;;;;
77468;SPS30;68840;50.272;12.818;2024-01-25T07:52:05;4.2;3.8;3.0;2.0;;;;;;
77468;SPS30;68840;50.272;12.818;2024-01-25T07:54:05;3.6;3.3;2.7;1.8;;;;;;
77468;SPS30;68840;50.272;12.818;2024-01-25T07:56:06;4.5;4.1;3.3;2.2;;;;;;
77468;SPS30;68840;50.272;12.818;2024-01-25T07:58:05;4.3;3.9;3.1;2.1;;;;;;
77468;SPS30;68840;50.272;12.818;2024-01-25T08:00:05;3.6;3.3;2.7;1.8;;;;;;
77468;SPS30;68840;50.272;12.818;2024-01-25T08:02:05;3.7;3.4;2.8;1.8;;;;;;
77468;SPS30;68840;50.272;12.818;2024-01-25T08:04:05;4.8;4.3;3.4;2.2;;;;;;
77468;SPS30;68840;50.272;12.818;2024-01-25T08:06:05;4.4;4.0;3.2;2.0;;;;;;
77468;SPS30;68840;50.272;12.818;2024-01-25T08:08:05;4.3;3.9;3.2;2.2;;;;;;
77468;SPS30;68840;50.272;12.818;2024-01-25T08:10:05;4.6;4.2;3.5;2.4;;;;;;
77468;SPS30;68840;50.272;12.818;2024-01-25T08:12:05;3.4;3.1;2.5;1.7;;;;;;
77468;SPS30;68840;50.272;12.818;2024-01-25T08:14:05;3.9;3.6;2.9;2.0;;;;;;
77468;SPS30;68840;50.272;12.818;2024-01-25T08:16:09;4.0;3.6;2.9;2.0;;;;;;
77468;SPS30;68840;50.272;12.818;2024-01-25T08:18:05;3.4;3.1;2.5;1.6;;;;;;
77468;SPS30;68840;50.272;12.818;2024-01-25T08:20:05;2.7;2.5;2.0;1.3;;;;;;
77468;SPS30;68840;50.272;12.818;2024-01-25T08:22:05;3.4;3.1;2.5;1.7;;;;;;
77468;SPS30;68840;50.272;12.818;2024-01-25T08:24:05;5.8;5.3;4.3;2.9;;;;;;
77468;SPS30;68840;50.272;12.818;2024-01-25T08:26:05;6.4;5.9;5.0;3.6;;;;;;
77468;SPS30;68840;50.272;12.818;2024-01-25T08:28:05;7.9;7.5;6.6;5.3;;;;;;
77468;SPS30;68840;50.272;12.818;2024-01-25T08:30:05;6.6;6.4;6.0;5.3;;;;;;
77468;SPS30;68840;50.272;12.818;2024-01-25T08:32:05;9.7;9.5;9.2;8.4;;;;;;
77468;SPS30;68840;50.272;12.818;2024-01-25T08:34:05;12.2;12.1;12.0;11.2;;;;;;
77468;SPS30;68840;50.272;12.818;2024-01-25T08:36:05;10.3;10.3;10.2;9.5;;;;;;
77468;SPS30;68840;50.272;12.818;2024-01-25T08:38:05;10.8;10.8;10.6;9.9;;;;;;
77468;SPS30;68840;50.272;12.818;2024-01-25T08:40:05;7.1;7.0;6.9;6.4;;;;;;
77468;SPS30;68840;50.272;12.818;2024-01-25T08:42:05;4.2;4.1;4.0;3.6;;;;;;
77468;SPS30;68840;50.272;12.818;2024-01-25T08:44:05;5.0;4.9;4.6;4.1;;;;;;
77468;SPS30;68840;50.272;12.818;2024-01-25T08:46:05;3.7;3.5;3.3;2.8;;;;;;
77468;SPS30;68840;50.272;12.818;2024-01-25T08:48:05;3.2;3.1;2.7;2.2;;;;;;
77468;SPS30;68840;50.272;12.818;2024-01-25T08:50:06;3.6;3.3;2.9;2.2;;;;;;
77468;SPS30;68840;50.272;12.818;2024-01-25T08:52:05;4.8;4.5;3.8;2.7;;;;;;
77468;SPS30;68840;50.272;12.818;2024-01-25T08:54:05;3.8;3.5;2.9;2.0;;;;;;
77468;SPS30;68840;50.272;12.818;2024-01-25T08:56:05;3.8;3.4;2.8;1.9;;;;;;
77468;SPS30;68840;50.272;12.818;2024-01-25T08:58:05;3.3;3.0;2.5;1.7;;;;;;
77468;SPS30;68840;50.272;12.818;2024-01-25T09:00:05;4.2;3.8;3.1;2.0;;;;;;
77468;SPS30;68840;50.272;12.818;2024-01-25T09:02:05;4.2;3.8;3.0;2.0;;;;;;
77468;SPS30;68840;50.272;12.818;2024-01-25T09:04:05;5.8;5.3;4.4;3.1;;;;;;
77468;SPS30;68840;50.272;12.818;2024-01-25T09:06:05;4.5;4.2;3.7;2.8;;;;;;
77468;SPS30;68840;50.272;12.818;2024-01-25T09:08:05;4.9;4.6;4.1;3.2;;;;;;
77468;SPS30;68840;50.272;12.818;2024-01-25T09:10:05;3.4;3.2;2.8;2.2;;;;;;
77468;SPS30;68840;50.272;12.818;2024-01-25T09:12:05;3.3;3.1;2.7;2.1;;;;;;
77468;SPS30;68840;50.272;12.818;2024-01-25T09:14:05;4.4;4.1;3.5;2.7;;;;;;
77468;SPS30;68840;50.272;12.818;2024-01-25T09:16:05;4.7;4.4;3.8;2.8;;;;;;
77468;SPS30;68840;50.272;12.818;2024-01-25T09:18:06;4.4;4.1;3.5;2.6;;;;;;
77468;SPS30;68840;50.272;12.818;2024-01-25T09:20:06;4.1;3.8;3.3;2.6;;;;;;
77468;SPS30;68840;50.272;12.818;2024-01-25T09:22:06;5.7;5.4;4.8;3.8;;;;;;
77468;SPS30;68840;50.272;12.818;2024-01-25T09:24:05;4.1;3.9;3.4;2.7;;;;;;
77468;SPS30;68840;50.272;12.818;2024-01-25T09:26:05;3.6;3.4;3.0;2.4;;;;;;
77468;SPS30;68840;50.272;12.818;2024-01-25T09:28:05;4.3;4.0;3.5;2.7;;;;;;
77468;SPS30;68840;50.272;12.818;2024-01-25T09:30:05;4.0;3.7;3.2;2.5;;;;;;
77468;SPS30;68840;50.272;12.818;2024-01-25T09:32:05;3.7;3.5;3.1;2.4;;;;;;
77468;SPS30;68840;50.272;12.818;2024-01-25T09:34:05;4.5;4.2;3.7;2.8;;;;;;
77468;SPS30;68840;50.272;12.818;2024-01-25T09:36:05;4.0;3.7;3.2;2.4;;;;;;
77468;SPS30;68840;50.272;12.818;2024-01-25T09:38:05;4.6;4.3;3.6;2.7;;;;;;
77468;SPS30;68840;50.272;12.818;2024-01-25T09:40:06;3.2;2.9;2.5;1.8;;;;;;
77468;SPS30;68840;50.272;12.818;2024-01-25T09:42:05;3.4;3.1;2.6;1.9;;;;;;
77468;SPS30;68840;50.272;12.818;2024-01-25T09:44:06;3.7;3.4;2.8;1.9;;;;;;
77468;SPS30;68840;50.272;12.818;2024-01-25T09:46:05;4.5;4.1;3.4;2.4;;;;;;
77468;SPS30;68840;50.272;12.818;2024-01-25T09:48:05;4.3;4.0;3.3;2.3;;;;;;
77468;SPS30;68840;50.272;12.818;2024-01-25T09:50:05;4.6;4.2;3.4;2.3;;;;;;
77468;SPS30;68840;50.272;12.818;2024-01-25T09:52:05;4.6;4.2;3.3;2.2;;;;;;
77468;SPS30;68840;50.272;12.818;2024-01-25T09:54:05;4.6;4.2;3.3;2.2;;;;;;
77468;SPS30;68840;50.272;12.818;2024-01-25T09:56:06;4.2;3.8;3.2;2.3;;;;;;
77468;SPS30;68840;50.272;12.818;2024-01-25T09:58:05;3.9;3.6;3.0;2.1;;;;;;
77468;SPS30;68840;50.272;12.818;2024-01-25T10:00:05;3.9;3.5;2.9;2.0;;;;;;
77468;SPS30;68840;50.272;12.818;2024-01-25T10:02:05;3.8;3.5;2.9;2.0;;;;;;
77468;SPS30;68840;50.272;12.818;2024-01-25T10:04:06;3.8;3.5;2.9;2.0;;;;;;
77468;SPS30;68840;50.272;12.818;2024-01-25T10:06:05;3.9;3.6;3.0;2.1;;;;;;
77468;SPS30;68840;50.272;12.818;2024-01-25T10:08:11;3.8;3.5;3.0;2.2;;;;;;
77468;SPS30;68840;50.272;12.818;2024-01-25T10:10:05;2.8;2.6;2.3;1.7;;;;;;
77468;SPS30;68840;50.272;12.818;2024-01-25T10:12:05;3.5;3.3;2.8;2.1;;;;;;
77468;SPS30;68840;50.272;12.818;2024-01-25T10:14:05;3.6;3.3;2.8;2.0;;;;;;
77468;SPS30;68840;50.272;12.818;2024-01-25T10:16:05;3.7;3.4;2.8;2.0;;;;;;
77468;SPS30;68840;50.272;12.818;2024-01-25T10:18:05;4.3;4.0;3.3;2.3;;;;;;
77468;SPS30;68840;50.272;12.818;2024-01-25T10:20:05;3.8;3.5;2.9;2.1;;;;;;
77468;SPS30;68840;50.272;12.818;2024-01-25T10:22:06;3.5;3.3;2.8;2.1;;;;;;
77468;SPS30;68840;50.272;12.818;2024-01-25T10:24:05;3.2;3.0;2.6;1.9;;;;;;
77468;SPS30;68840;50.272;12.818;2024-01-25T10:26:05;3.1;2.9;2.4;1.7;;;;;;
77468;SPS30;68840;50.272;12.818;2024-01-25T10:28:05;3.2;2.9;2.4;1.7;;;;;;
77468;SPS30;68840;50.272;12.818;2024-01-25T10:30:06;4.2;3.9;3.2;2.2;;;;;;
77468;SPS30;68840;50.272;12.818;2024-01-25T10:32:05;3.4;3.2;2.6;1.8;;;;;;
77468;SPS30;68840;50.272;12.818;2024-01-25T10:34:05;4.0;3.6;3.0;2.1;;;;;;
77468;SPS30;68840;50.272;12.818;2024-01-25T10:36:05;3.3;3.0;2.5;1.7;;;;;;
77468;SPS30;68840;50.272;12.818;2024-01-25T10:38:05;3.4;3.1;2.6;1.8;;;;;;
77468;SPS30;68840;50.272;12.818;2024-01-25T10:40:06;3.5;3.2;2.6;1.7;;;;;;
77468;SPS30;68840;50.272;12.818;2024-01-25T10:42:05;3.2;2.9;2.3;1.5;;;;;;
77468;SPS30;68840;50.272;12.818;2024-01-25T10:44:05;3.4;3.1;2.5;1.7;;;;;;